Time;durP1;ratioP1;P1;durP2;ratioP2;P2;SDS_P1;SDS_P2;PMS_P1;PMS_P2;Temp;Humidity;BMP_temperature;BMP_pressure;BME280_temperature;BME280_humidity;BME280_pressure;Samples;Min_cycle;Max_cycle;Signal;HPM_P1;HPM_P2
2022/07/13 00:01:35;;;;;;;0.98;0.70;;;23.50;99.90;;;;;;4975807;28;20185;-59
2022/07/13 00:04:00;;;;;;;0.70;0.70;;;23.50;99.90;;;;;;4974308;28;20202;-60
2022/07/13 00:06:26;;;;;;;1.30;0.70;;;23.50;99.90;;;;;;4974343;28;20411;-60
2022/07/13 00:08:52;;;;;;;0.82;0.82;;;23.50;99.90;;;;;;4975419;28;20205;-60
2022/07/13 00:11:18;;;;;;;0.60;0.60;;;23.50;99.90;;;;;;4975627;28;20683;-60
2022/07/13 00:13:43;;;;;;;0.70;0.60;;;23.40;99.90;;;;;;4974120;28;20186;-60
2022/07/13 00:16:09;;;;;;;1.38;1.08;;;23.40;99.90;;;;;;4975589;28;20189;-60
2022/07/13 00:18:35;;;;;;;0.80;0.77;;;23.40;99.90;;;;;;4975142;28;20198;-60
2022/07/13 00:21:00;;;;;;;0.90;0.90;;;23.40;99.90;;;;;;4974137;28;20535;-60
2022/07/13 00:23:26;;;;;;;1.27;0.70;;;23.40;99.90;;;;;;4975140;28;20182;-60
2022/07/13 00:25:51;;;;;;;0.95;0.85;;;23.40;99.90;;;;;;4975078;28;20644;-60
2022/07/13 00:28:17;;;;;;;1.15;0.85;;;23.40;99.90;;;;;;4975331;28;20210;-61
2022/07/13 00:30:43;;;;;;;0.70;0.70;;;23.40;99.90;;;;;;4975007;28;20186;-59
2022/07/13 00:33:08;;;;;;;0.93;0.80;;;23.30;99.90;;;;;;4973631;28;20202;-60
2022/07/13 00:35:34;;;;;;;0.60;0.60;;;23.30;99.90;;;;;;4975111;28;20201;-60
2022/07/13 00:38:00;;;;;;;1.13;0.88;;;23.30;99.90;;;;;;4974901;28;20282;-60
2022/07/13 00:40:26;;;;;;;1.00;0.90;;;23.30;99.90;;;;;;4974929;28;20185;-60
2022/07/13 00:42:52;;;;;;;0.80;0.80;;;23.30;99.90;;;;;;4974814;28;20186;-60
2022/07/13 00:45:18;;;;;;;1.05;0.90;;;23.30;99.90;;;;;;4974941;28;20220;-60
2022/07/13 00:47:47;;;;;;;1.10;0.95;;;23.30;99.90;;;;;;4974599;28;20200;-60
2022/07/13 00:50:13;;;;;;;1.15;0.70;;;23.20;99.90;;;;;;4974774;28;20213;-60
2022/07/13 00:52:39;;;;;;;0.90;0.73;;;23.20;99.90;;;;;;4973578;28;20277;-60
2022/07/13 00:55:09;;;;;;;1.05;0.80;;;23.20;99.90;;;;;;4973612;28;20648;-60
2022/07/13 00:57:36;;;;;;;0.85;0.80;;;23.20;99.90;;;;;;4974583;28;20178;-60
2022/07/13 01:00:09;;;;;;;1.10;0.70;;;23.10;99.90;;;;;;4974598;28;20182;-60
2022/07/13 01:02:43;;;;;;;1.13;1.02;;;23.10;99.90;;;;;;4974684;28;20213;-60
2022/07/13 01:05:10;;;;;;;1.55;0.85;;;23.10;99.90;;;;;;4973592;28;20174;-60
2022/07/13 01:07:37;;;;;;;0.95;0.82;;;23.10;99.90;;;;;;4974936;28;20170;-60
2022/07/13 01:10:07;;;;;;;1.35;0.80;;;23.10;99.90;;;;;;4973158;28;20272;-61
2022/07/13 01:12:34;;;;;;;0.70;0.70;;;23.10;99.90;;;;;;4974384;28;20549;-60
2022/07/13 01:15:01;;;;;;;0.60;0.60;;;23.00;99.90;;;;;;4973409;28;20256;-60
2022/07/13 01:17:27;;;;;;;1.00;0.80;;;23.10;99.90;;;;;;4974393;28;20221;-60
2022/07/13 01:19:54;;;;;;;0.93;0.82;;;23.10;99.90;;;;;;4974537;28;20182;-60
2022/07/13 01:22:24;;;;;;;0.68;0.68;;;23.10;99.90;;;;;;4974428;28;20551;-60
2022/07/13 01:24:50;;;;;;;0.77;0.77;;;23.10;99.90;;;;;;4974309;28;20205;-61
2022/07/13 01:27:16;;;;;;;1.10;1.00;;;23.00;99.90;;;;;;4973116;28;20679;-60
2022/07/13 01:29:42;;;;;;;0.70;0.70;;;23.00;99.90;;;;;;4973057;28;20544;-60
2022/07/13 01:32:08;;;;;;;1.40;0.82;;;23.00;99.90;;;;;;4974426;28;20178;-60
2022/07/13 01:34:33;;;;;;;0.85;0.80;;;23.00;99.90;;;;;;4974309;28;20213;-60
2022/07/13 01:37:00;;;;;;;0.82;0.63;;;23.00;99.90;;;;;;4974237;28;20264;-60
2022/07/13 01:39:26;;;;;;;0.85;0.80;;;23.00;99.90;;;;;;4973098;28;20209;-62
2022/07/13 01:41:51;;;;;;;0.98;0.70;;;23.00;99.90;;;;;;4974078;28;20217;-60
2022/07/13 01:44:17;;;;;;;0.77;0.75;;;22.90;99.90;;;;;;4974437;28;20628;-61
2022/07/13 01:46:43;;;;;;;1.00;0.80;;;22.90;99.90;;;;;;4974286;28;20551;-59
2022/07/13 01:49:09;;;;;;;1.23;0.82;;;22.90;99.90;;;;;;4972855;28;20210;-60
2022/07/13 01:51:35;;;;;;;1.20;0.70;;;22.90;99.90;;;;;;4972894;28;20193;-60
2022/07/13 01:54:00;;;;;;;0.57;0.57;;;22.90;99.90;;;;;;4974164;28;20178;-60
2022/07/13 01:56:26;;;;;;;0.60;0.60;;;23.00;99.90;;;;;;4956664;28;20193;-60
2022/07/13 01:58:52;;;;;;;0.80;0.70;;;23.00;99.90;;;;;;4973252;28;20187;-60
2022/07/13 02:01:18;;;;;;;0.47;0.47;;;23.00;99.90;;;;;;4973304;28;20656;-61
2022/07/13 02:03:43;;;;;;;0.90;0.63;;;23.00;99.90;;;;;;4972791;28;20178;-60
2022/07/13 02:06:09;;;;;;;1.23;0.68;;;23.00;99.90;;;;;;4974054;28;20269;-60
2022/07/13 02:08:35;;;;;;;1.10;0.50;;;23.00;99.90;;;;;;4973929;28;20280;-60
2022/07/13 02:11:01;;;;;;;0.75;0.75;;;23.00;99.90;;;;;;4972718;28;20176;-60
2022/07/13 02:13:27;;;;;;;0.88;0.70;;;23.00;99.90;;;;;;4973941;28;20232;-60
2022/07/13 02:15:52;;;;;;;1.40;0.82;;;22.90;99.90;;;;;;4974007;28;20185;-60
2022/07/13 02:18:18;;;;;;;0.70;0.70;;;22.90;99.90;;;;;;4974006;28;20198;-60
2022/07/13 02:20:44;;;;;;;0.80;0.70;;;22.90;99.90;;;;;;4973098;28;20547;-60
2022/07/13 02:23:10;;;;;;;1.58;1.00;;;22.90;99.90;;;;;;4977355;28;20178;-60
2022/07/13 02:25:37;;;;;;;0.73;0.60;;;22.90;99.90;;;;;;4975966;28;20185;-60
2022/07/13 02:28:04;;;;;;;0.98;0.70;;;22.90;99.90;;;;;;4977409;28;20178;-60
2022/07/13 02:30:30;;;;;;;0.90;0.70;;;22.90;99.90;;;;;;4975922;28;20190;-60
2022/07/13 02:32:57;;;;;;;1.08;0.77;;;22.90;99.90;;;;;;4975987;28;20260;-60
2022/07/13 02:35:22;;;;;;;0.70;0.65;;;22.90;99.90;;;;;;4977126;28;20174;-60
2022/07/13 02:37:48;;;;;;;0.70;0.70;;;22.90;99.90;;;;;;4977035;28;20197;-61
2022/07/13 02:40:14;;;;;;;1.30;0.73;;;22.80;99.90;;;;;;4976948;28;20170;-60
2022/07/13 02:42:40;;;;;;;0.70;0.70;;;22.80;99.90;;;;;;4976936;28;20200;-60
2022/07/13 02:45:07;;;;;;;1.10;0.70;;;22.80;99.90;;;;;;4977149;28;20182;-61
2022/07/13 02:47:32;;;;;;;0.85;0.75;;;22.80;99.90;;;;;;4976900;28;20567;-60
2022/07/13 02:49:58;;;;;;;1.20;0.73;;;22.80;99.90;;;;;;4975642;28;20237;-61
2022/07/13 02:52:24;;;;;;;0.80;0.60;;;22.80;99.90;;;;;;4976733;28;20182;-60
2022/07/13 02:54:49;;;;;;;1.05;0.80;;;22.80;99.90;;;;;;4976758;28;20185;-60
2022/07/13 02:57:15;;;;;;;1.60;0.70;;;22.80;99.90;;;;;;4976888;28;20173;-60
2022/07/13 02:59:41;;;;;;;0.60;0.60;;;22.80;99.90;;;;;;4976640;28;20262;-61
2022/07/13 03:02:07;;;;;;;0.75;0.70;;;22.70;99.90;;;;;;4976714;28;20628;-59
2022/07/13 03:04:33;;;;;;;0.90;0.80;;;22.80;99.90;;;;;;4975440;28;20182;-60
2022/07/13 03:07:00;;;;;;;1.00;0.80;;;22.70;99.90;;;;;;4976588;28;20174;-60
2022/07/13 03:09:25;;;;;;;0.60;0.60;;;22.70;99.90;;;;;;4976416;28;20288;-60
2022/07/13 03:11:52;;;;;;;0.60;0.60;;;22.70;99.90;;;;;;4976458;28;20224;-60
2022/07/13 03:14:18;;;;;;;0.68;0.60;;;22.70;99.90;;;;;;4975335;28;20186;-60
2022/07/13 03:16:43;;;;;;;1.50;0.90;;;22.70;99.90;;;;;;4976419;28;20240;-60
2022/07/13 03:19:10;;;;;;;1.00;0.70;;;22.70;99.90;;;;;;4976364;28;20550;-60
2022/07/13 03:21:36;;;;;;;1.27;0.82;;;22.70;99.90;;;;;;4976326;28;20181;-60
2022/07/13 03:24:02;;;;;;;0.70;0.70;;;22.70;99.90;;;;;;4974982;28;20224;-61
2022/07/13 03:26:27;;;;;;;0.80;0.80;;;22.70;99.90;;;;;;4976480;28;20202;-60
2022/07/13 03:28:53;;;;;;;0.63;0.55;;;22.70;99.90;;;;;;4976010;28;20198;-60
2022/07/13 03:31:19;;;;;;;1.20;0.85;;;22.70;99.90;;;;;;4976062;28;20178;-59
2022/07/13 03:33:45;;;;;;;1.20;0.57;;;22.70;99.90;;;;;;4976065;28;20261;-60
2022/07/13 03:36:10;;;;;;;0.90;0.60;;;22.70;99.90;;;;;;4975978;28;20236;-60
2022/07/13 03:38:36;;;;;;;0.80;0.70;;;22.70;99.90;;;;;;4974751;28;20194;-60
2022/07/13 03:41:03;;;;;;;1.10;0.60;;;22.70;99.90;;;;;;4976110;28;20185;-60
2022/07/13 03:43:28;;;;;;;0.77;0.65;;;22.70;99.90;;;;;;4976003;28;20505;-60
2022/07/13 03:45:54;;;;;;;0.50;0.50;;;22.70;99.90;;;;;;4975894;28;20189;-60
2022/07/13 03:48:20;;;;;;;1.38;0.82;;;22.70;99.90;;;;;;4975721;28;20202;-60
2022/07/13 03:50:48;;;;;;;0.70;0.70;;;22.70;99.90;;;;;;4974606;28;20191;-60
2022/07/13 03:53:14;;;;;;;0.93;0.60;;;22.70;99.90;;;;;;4975721;28;20178;-60
2022/07/13 03:55:41;;;;;;;0.80;0.52;;;22.70;99.90;;;;;;4975772;28;20189;-61
2022/07/13 03:58:07;;;;;;;0.77;0.57;;;22.80;99.90;;;;;;4975653;28;20178;-60
2022/07/13 04:00:33;;;;;;;1.52;0.57;;;22.80;99.90;;;;;;4975620;28;20182;-60
2022/07/13 04:02:58;;;;;;;0.65;0.50;;;22.80;99.90;;;;;;4975762;28;20189;-60
2022/07/13 04:05:25;;;;;;;0.55;0.50;;;22.70;99.90;;;;;;4974399;28;20189;-60
2022/07/13 04:07:50;;;;;;;0.98;0.70;;;22.70;99.90;;;;;;4975310;28;20178;-60
2022/07/13 04:10:19;;;;;;;0.50;0.50;;;22.70;99.90;;;;;;4974435;28;20359;-60
2022/07/13 04:12:46;;;;;;;0.70;0.70;;;22.70;99.90;;;;;;4975516;28;20170;-60
2022/07/13 04:15:12;;;;;;;1.00;0.80;;;22.60;99.90;;;;;;4974243;28;20182;-60
2022/07/13 04:17:42;;;;;;;0.75;0.60;;;22.60;99.90;;;;;;4975511;28;20195;-60
2022/07/13 04:20:09;;;;;;;0.80;0.68;;;22.60;99.90;;;;;;4975113;28;20185;-61
2022/07/13 04:22:35;;;;;;;1.10;0.65;;;22.50;99.90;;;;;;4975449;28;20240;-60
2022/07/13 04:25:02;;;;;;;1.38;0.70;;;22.40;99.90;;;;;;4975309;28;20627;-60
2022/07/13 04:27:27;;;;;;;0.50;0.50;;;22.50;99.90;;;;;;4973854;28;20190;-60
2022/07/13 04:29:53;;;;;;;1.17;0.75;;;22.40;99.90;;;;;;4973998;28;20260;-60
2022/07/13 04:32:19;;;;;;;1.20;0.80;;;22.40;99.90;;;;;;4975061;28;20189;-57
2022/07/13 04:34:44;;;;;;;0.60;0.55;;;22.40;99.90;;;;;;4974943;28;20182;-60
2022/07/13 04:37:10;;;;;;;0.80;0.57;;;22.40;99.90;;;;;;4975423;28;20174;-60
2022/07/13 04:39:39;;;;;;;1.48;0.90;;;22.40;99.90;;;;;;4975038;28;20624;-60
2022/07/13 04:42:05;;;;;;;0.77;0.75;;;22.50;99.90;;;;;;4974963;28;20196;-60
2022/07/13 04:44:30;;;;;;;0.80;0.60;;;22.50;99.90;;;;;;4974430;28;20257;-60
2022/07/13 04:46:56;;;;;;;0.70;0.70;;;22.50;99.90;;;;;;4974814;28;20178;-60
2022/07/13 04:49:22;;;;;;;0.50;0.50;;;22.50;99.90;;;;;;4974563;28;20253;-60
2022/07/13 04:51:48;;;;;;;0.82;0.57;;;22.50;99.90;;;;;;4974892;28;20188;-60
2022/07/13 04:54:18;;;;;;;0.85;0.65;;;22.50;99.90;;;;;;4973628;28;20565;-60
2022/07/13 04:56:44;;;;;;;1.25;0.52;;;22.40;99.90;;;;;;4974969;28;20217;-60
2022/07/13 04:59:10;;;;;;;1.10;0.70;;;22.40;99.90;;;;;;4974782;28;20185;-60
2022/07/13 05:01:36;;;;;;;1.30;0.70;;;22.40;99.90;;;;;;4973414;28;20587;-60
2022/07/13 05:04:03;;;;;;;1.00;0.98;;;22.40;99.90;;;;;;4973582;28;20201;-60
2022/07/13 05:06:29;;;;;;;0.50;0.50;;;22.40;99.90;;;;;;4974579;28;20628;-60
2022/07/13 05:08:55;;;;;;;0.75;0.57;;;22.40;99.90;;;;;;4974570;28;20229;-60
2022/07/13 05:11:20;;;;;;;0.50;0.50;;;22.50;99.90;;;;;;4973384;28;20177;-60
2022/07/13 05:13:46;;;;;;;0.70;0.60;;;22.40;99.90;;;;;;4973493;28;20178;-61
2022/07/13 05:16:12;;;;;;;0.57;0.55;;;22.50;99.90;;;;;;4974666;28;20189;-60
2022/07/13 05:18:38;;;;;;;0.70;0.70;;;22.40;99.90;;;;;;4974683;28;20209;-60
2022/07/13 05:21:03;;;;;;;0.60;0.60;;;22.40;99.90;;;;;;4974576;28;20627;-60
2022/07/13 05:23:29;;;;;;;0.57;0.57;;;22.40;99.90;;;;;;4974772;28;20639;-60
2022/07/13 05:25:55;;;;;;;0.70;0.70;;;22.30;99.90;;;;;;4973144;28;20181;-59
2022/07/13 05:28:21;;;;;;;1.45;0.68;;;22.30;99.90;;;;;;4974234;28;20261;-59
2022/07/13 05:30:47;;;;;;;0.73;0.60;;;22.30;99.90;;;;;;4974311;28;20272;-59
2022/07/13 05:33:15;;;;;;;1.05;0.60;;;22.30;99.90;;;;;;4974260;28;20181;-61
2022/07/13 05:35:41;;;;;;;0.57;0.57;;;22.20;99.90;;;;;;4974688;28;20201;-60
2022/07/13 05:38:07;;;;;;;0.90;0.50;;;22.20;99.90;;;;;;4972627;28;20211;-57
2022/07/13 05:40:32;;;;;;;2.85;0.70;;;22.20;99.90;;;;;;4974247;28;20241;-58
2022/07/13 05:42:58;;;;;;;1.00;0.80;;;22.20;99.90;;;;;;4974130;28;20174;-60
2022/07/13 05:45:25;;;;;;;0.75;0.75;;;22.30;99.90;;;;;;4974158;28;20212;-60
2022/07/13 05:47:51;;;;;;;0.60;0.60;;;22.30;99.90;;;;;;4973899;28;20206;-60
2022/07/13 05:50:17;;;;;;;0.95;0.75;;;22.40;99.90;;;;;;4973875;28;20209;-60
2022/07/13 05:52:43;;;;;;;0.57;0.40;;;22.40;99.90;;;;;;4973805;28;20272;-60
2022/07/13 05:55:10;;;;;;;0.52;0.52;;;22.50;99.90;;;;;;4973907;28;20253;-59
2022/07/13 05:57:36;;;;;;;0.70;0.70;;;22.50;99.90;;;;;;4977289;28;20221;-60
2022/07/13 06:00:05;;;;;;;0.70;0.70;;;22.50;99.90;;;;;;4977659;28;20178;-60
2022/07/13 06:02:31;;;;;;;1.45;0.80;;;22.50;99.90;;;;;;4981602;28;20177;-60
2022/07/13 06:04:57;;;;;;;1.00;0.90;;;22.60;99.90;;;;;;4996049;28;20701;-59
2022/07/13 06:07:22;;;;;;;0.90;0.77;;;22.60;99.90;;;;;;4997229;28;20170;-60
2022/07/13 06:09:49;;;;;;;1.50;1.08;;;22.70;99.90;;;;;;4996691;28;20220;-59
2022/07/13 06:12:15;;;;;;;0.80;0.77;;;22.70;99.90;;;;;;4995618;28;20227;-60
2022/07/13 06:14:41;;;;;;;0.93;0.82;;;22.80;99.90;;;;;;4996674;28;20223;-60
2022/07/13 06:17:06;;;;;;;1.30;0.90;;;22.80;99.90;;;;;;4996771;28;20597;-59
2022/07/13 06:19:33;;;;;;;2.25;0.90;;;22.90;99.90;;;;;;4996725;28;20174;-59
2022/07/13 06:21:59;;;;;;;0.85;0.82;;;22.80;99.90;;;;;;4975936;28;20182;-59
2022/07/13 06:24:25;;;;;;;1.08;0.90;;;22.80;99.90;;;;;;4975883;28;20185;-60
2022/07/13 06:26:51;;;;;;;1.98;1.10;;;22.90;99.90;;;;;;4977066;28;20174;-60
2022/07/13 06:29:17;;;;;;;1.10;0.80;;;22.90;99.90;;;;;;4975745;28;20301;-60
2022/07/13 06:31:42;;;;;;;1.25;1.00;;;22.90;99.90;;;;;;4975160;28;20174;-55
2022/07/13 06:34:08;;;;;;;1.30;1.05;;;23.00;99.90;;;;;;4991231;28;20184;-58
2022/07/13 06:36:34;;;;;;;1.15;1.00;;;23.10;99.90;;;;;;4994393;28;20178;-60
2022/07/13 06:39:00;;;;;;;1.65;1.30;;;23.20;99.90;;;;;;4994962;28;20585;-60
2022/07/13 06:41:26;;;;;;;2.35;1.58;;;23.30;99.90;;;;;;4995122;28;20169;-57
2022/07/13 06:43:52;;;;;;;1.98;1.40;;;23.50;99.90;;;;;;4996006;28;20178;-60
2022/07/13 06:46:18;;;;;;;1.35;0.93;;;23.70;99.90;;;;;;4994888;28;20232;-60
2022/07/13 06:48:44;;;;;;;1.20;1.10;;;23.90;99.90;;;;;;4994378;28;20217;-59
2022/07/13 06:51:09;;;;;;;1.00;0.70;;;24.10;99.90;;;;;;4995597;28;20217;-59
2022/07/13 06:53:35;;;;;;;1.58;1.17;;;24.10;99.90;;;;;;4996377;28;20689;-62
2022/07/13 06:56:01;;;;;;;1.33;1.20;;;24.20;99.90;;;;;;4995003;28;20181;-55
2022/07/13 06:58:27;;;;;;;1.65;1.30;;;24.20;99.90;;;;;;4996116;28;20177;-53
2022/07/13 07:00:52;;;;;;;1.40;1.30;;;24.30;99.90;;;;;;4962903;28;20239;-54
2022/07/13 07:03:18;;;;;;;0.82;0.80;;;24.30;99.90;;;;;;4994923;28;20184;-54
2022/07/13 07:05:45;;;;;;;1.38;0.98;;;24.40;99.90;;;;;;4996335;28;20631;-51
2022/07/13 07:08:10;;;;;;;1.10;0.90;;;24.40;99.90;;;;;;4995467;28;20186;-53
2022/07/13 07:10:37;;;;;;;1.10;0.90;;;24.50;99.90;;;;;;4995952;28;20177;-55
2022/07/13 07:13:02;;;;;;;1.80;1.02;;;24.70;99.90;;;;;;4995643;28;20173;-55
2022/07/13 07:15:28;;;;;;;2.13;1.02;;;24.70;99.90;;;;;;4994478;28;20182;-55
2022/07/13 07:17:54;;;;;;;1.02;0.98;;;24.90;99.90;;;;;;4996076;28;20676;-55
2022/07/13 07:20:19;;;;;;;1.20;1.10;;;25.20;99.90;;;;;;4994930;28;20189;-54
2022/07/13 07:22:46;;;;;;;1.10;1.00;;;25.30;99.90;;;;;;4995836;28;20200;-54
2022/07/13 07:25:13;;;;;;;1.73;1.10;;;25.40;99.90;;;;;;4995668;28;20181;-54
2022/07/13 07:27:40;;;;;;;1.85;1.08;;;25.50;99.90;;;;;;4995642;28;20260;-55
2022/07/13 07:30:06;;;;;;;0.90;0.80;;;25.50;99.90;;;;;;4994638;28;20692;-53
2022/07/13 07:32:32;;;;;;;0.98;0.80;;;25.30;99.90;;;;;;4994546;28;20177;-58
2022/07/13 07:34:58;;;;;;;1.30;1.10;;;25.30;99.90;;;;;;4994571;28;20658;-59
2022/07/13 07:37:24;;;;;;;1.38;0.98;;;25.50;99.90;;;;;;4995511;28;20173;-59
2022/07/13 07:39:50;;;;;;;0.93;0.82;;;25.60;99.90;;;;;;4994378;28;20185;-59
2022/07/13 07:42:16;;;;;;;1.00;0.90;;;25.70;99.90;;;;;;4995265;28;20631;-59
2022/07/13 07:44:42;;;;;;;0.60;0.60;;;25.90;99.90;;;;;;4995610;28;20201;-59
2022/07/13 07:47:08;;;;;;;1.30;1.13;;;26.10;99.90;;;;;;4995676;28;20173;-59
2022/07/13 07:49:35;;;;;;;0.70;0.70;;;26.10;99.90;;;;;;4995323;28;20244;-60
2022/07/13 07:52:03;;;;;;;0.50;0.50;;;25.90;99.80;;;;;;4995229;28;20192;-59
2022/07/13 07:54:29;;;;;;;0.73;0.60;;;25.70;99.70;;;;;;4995433;28;20236;-60
2022/07/13 07:56:55;;;;;;;0.85;0.60;;;25.50;99.70;;;;;;4995298;28;20642;-60
2022/07/13 07:59:21;;;;;;;0.60;0.60;;;25.50;99.90;;;;;;4994025;28;20621;-58
2022/07/13 08:01:46;;;;;;;1.80;0.80;;;25.50;99.90;;;;;;4995219;28;20192;-59
2022/07/13 08:04:12;;;;;;;0.65;0.65;;;26.10;99.90;;;;;;4995203;28;20173;-59
2022/07/13 08:06:40;;;;;;;0.90;0.70;;;26.40;99.30;;;;;;4995186;28;20527;-60
2022/07/13 08:09:06;;;;;;;1.70;0.77;;;26.90;99.50;;;;;;4994768;28;20208;-59
2022/07/13 08:11:32;;;;;;;1.00;0.60;;;27.30;98.30;;;;;;4977403;28;20650;-59
2022/07/13 08:13:57;;;;;;;1.27;0.73;;;27.10;97.70;;;;;;4994720;28;20237;-59
2022/07/13 08:16:23;;;;;;;0.70;0.70;;;26.80;97.80;;;;;;4995066;28;20188;-59
2022/07/13 08:18:52;;;;;;;0.95;0.75;;;27.00;97.90;;;;;;4994040;28;20189;-59
2022/07/13 08:21:18;;;;;;;0.80;0.80;;;27.10;96.80;;;;;;4993558;28;20174;-60
2022/07/13 08:23:52;;;;;;;0.85;0.80;;;27.20;97.60;;;;;;4993368;28;20200;-59
2022/07/13 08:26:29;;;;;;;0.73;0.73;;;27.20;97.20;;;;;;4994774;28;20177;-59
2022/07/13 08:28:57;;;;;;;0.70;0.60;;;27.10;97.70;;;;;;4994567;28;20744;-60
2022/07/13 08:31:24;;;;;;;0.75;0.73;;;27.00;98.30;;;;;;4994553;28;20225;-59
2022/07/13 08:39:21;;;;;;;0.52;0.52;;;26.90;97.80;;;;;;4994959;28;20284;-58
2022/07/13 08:41:48;;;;;;;0.95;0.70;;;26.70;97.00;;;;;;4994943;28;20232;-59
2022/07/13 08:44:14;;;;;;;0.70;0.63;;;26.70;97.70;;;;;;4994425;28;20219;-59
2022/07/13 08:46:40;;;;;;;1.33;0.75;;;27.10;97.80;;;;;;4993986;28;20189;-59
2022/07/13 08:49:07;;;;;;;0.98;0.60;;;27.40;97.00;;;;;;4994029;28;20221;-60
2022/07/13 08:51:33;;;;;;;0.60;0.60;;;27.90;97.10;;;;;;4994287;28;20208;-59
2022/07/13 08:54:00;;;;;;;1.13;0.60;;;27.80;96.20;;;;;;4992931;28;20177;-59
2022/07/13 08:56:25;;;;;;;1.05;0.70;;;27.70;97.20;;;;;;4994099;28;20180;-59
2022/07/13 08:58:54;;;;;;;1.13;0.60;;;27.80;97.70;;;;;;4994086;28;20268;-59
2022/07/13 09:01:20;;;;;;;0.82;0.63;;;27.90;96.90;;;;;;4993975;28;20254;-60
2022/07/13 09:03:47;;;;;;;0.70;0.70;;;27.90;96.70;;;;;;4994167;28;20186;-59
2022/07/13 09:06:48;;;;;;;1.17;0.68;;;28.00;95.90;;;;;;4993017;28;20235;-60
2022/07/13 09:09:31;;;;;;;1.25;0.73;;;28.20;95.10;;;;;;4993813;28;20736;-59
2022/07/13 09:12:12;;;;;;;0.52;0.50;;;28.20;95.40;;;;;;4994163;28;20169;-59
2022/07/13 09:14:38;;;;;;;0.60;0.60;;;28.40;95.30;;;;;;4993998;28;20586;-60
2022/07/13 09:17:04;;;;;;;1.05;0.70;;;28.50;95.10;;;;;;4994009;28;20656;-59
2022/07/13 09:19:39;;;;;;;0.95;0.60;;;28.70;95.60;;;;;;4992670;28;20177;-59
2022/07/13 09:22:12;;;;;;;0.50;0.50;;;28.80;94.50;;;;;;4992666;28;20165;-59
2022/07/13 09:24:46;;;;;;;0.57;0.50;;;28.50;93.60;;;;;;4993949;28;20243;-60
2022/07/13 09:27:13;;;;;;;0.80;0.75;;;28.20;94.50;;;;;;4993880;28;20173;-60
2022/07/13 09:29:38;;;;;;;1.45;0.68;;;27.80;94.60;;;;;;4994038;28;20205;-60
2022/07/13 09:32:09;;;;;;;0.68;0.38;;;28.10;94.80;;;;;;4997847;28;20634;-60
2022/07/13 09:34:54;;;;;;;0.60;0.60;;;28.40;94.60;;;;;;4996581;28;20181;-60
2022/07/13 09:37:22;;;;;;;0.45;0.45;;;28.70;94.30;;;;;;4997901;28;20268;-60
2022/07/13 09:40:08;;;;;;;0.75;0.75;;;29.20;94.50;;;;;;4997799;28;20177;-60
2022/07/13 09:42:39;;;;;;;0.68;0.55;;;29.20;93.60;;;;;;4997667;28;20573;-59
2022/07/13 09:47:54;;;;;;;0.95;0.70;;;29.20;94.20;;;;;;4997811;28;20412;-60
2022/07/13 09:50:33;;;;;;;0.65;0.60;;;29.50;93.30;;;;;;4996005;28;20248;-60
2022/07/13 09:52:58;;;;;;;0.45;0.45;;;29.20;93.20;;;;;;4997527;28;20177;-60
2022/07/13 09:55:24;;;;;;;0.73;0.65;;;28.90;93.70;;;;;;4996148;28;20231;-60
2022/07/13 09:57:57;;;;;;;0.75;0.52;;;28.80;95.10;;;;;;4997517;28;20181;-60
2022/07/13 10:00:23;;;;;;;1.40;0.65;;;29.00;94.70;;;;;;4996141;28;20177;-60
2022/07/13 10:02:50;;;;;;;0.65;0.57;;;29.20;94.30;;;;;;4996174;28;20268;-60
2022/07/13 10:05:18;;;;;;;0.75;0.70;;;29.50;93.80;;;;;;4996043;28;20189;-60
2022/07/13 10:07:47;;;;;;;1.10;0.70;;;29.70;93.90;;;;;;4997081;28;20197;-60
2022/07/13 10:10:14;;;;;;;0.50;0.50;;;30.00;93.50;;;;;;4996864;28;20201;-60
2022/07/13 10:12:41;;;;;;;1.10;0.60;;;30.20;93.20;;;;;;4997219;28;20773;-60
2022/07/13 10:15:07;;;;;;;0.50;0.50;;;30.50;92.80;;;;;;4997129;28;20189;-60
2022/07/13 10:17:34;;;;;;;0.52;0.52;;;30.30;92.90;;;;;;4997156;28;20197;-60
2022/07/13 10:20:15;;;;;;;2.05;0.88;;;30.30;93.00;;;;;;4996908;28;20217;-60
2022/07/13 10:22:46;;;;;;;0.63;0.40;;;30.30;92.10;;;;;;4995626;28;20173;-60
2022/07/13 10:25:12;;;;;;;0.50;0.50;;;29.90;92.50;;;;;;4997098;28;20578;-59
2022/07/13 10:27:41;;;;;;;0.63;0.63;;;30.10;92.80;;;;;;4995584;28;20170;-60
2022/07/13 10:30:17;;;;;;;0.60;0.60;;;30.40;93.30;;;;;;4996719;28;20212;-61
2022/07/13 10:32:47;;;;;;;0.60;0.60;;;30.60;93.00;;;;;;4996700;28;20193;-60
2022/07/13 10:35:16;;;;;;;0.98;0.70;;;30.70;91.70;;;;;;4995330;28;20189;-59
2022/07/13 10:38:16;;;;;;;0.50;0.50;;;30.80;91.90;;;;;;4996667;28;20677;-60
2022/07/13 10:40:42;;;;;;;0.52;0.52;;;31.10;90.70;;;;;;4980852;28;20177;-60
2022/07/13 10:43:13;;;;;;;1.48;0.60;;;31.10;91.00;;;;;;4995589;28;20708;-60
2022/07/13 10:45:48;;;;;;;0.40;0.40;;;31.40;91.50;;;;;;4996440;28;20185;-60
2022/07/13 10:48:20;;;;;;;0.60;0.50;;;31.50;90.70;;;;;;4996479;28;20176;-61
2022/07/13 10:50:47;;;;;;;0.63;0.60;;;31.50;91.10;;;;;;4996171;28;20189;-59
2022/07/13 10:53:17;;;;;;;0.60;0.60;;;31.20;91.00;;;;;;4996260;28;20228;-60
2022/07/13 10:55:47;;;;;;;1.27;0.65;;;31.10;90.80;;;;;;4996185;28;20181;-60
2022/07/13 10:58:30;;;;;;;0.63;0.60;;;31.00;90.80;;;;;;4996266;28;20185;-60
2022/07/13 11:01:22;;;;;;;0.75;0.70;;;30.60;89.50;;;;;;4996280;28;20169;-57
2022/07/13 11:03:48;;;;;;;0.60;0.60;;;30.50;90.60;;;;;;4994891;28;20643;-60
2022/07/13 11:06:23;;;;;;;0.75;0.60;;;30.60;91.00;;;;;;4995981;28;20173;-60
2022/07/13 11:09:18;;;;;;;0.60;0.60;;;30.50;90.90;;;;;;4996117;28;20205;-60
2022/07/13 11:11:49;;;;;;;0.80;0.80;;;30.00;90.50;;;;;;4989327;28;20193;-57
2022/07/13 11:14:38;;;;;;;1.33;0.70;;;29.60;91.00;;;;;;4978836;28;20177;-60
2022/07/13 11:17:15;;;;;;;1.00;0.65;;;30.00;91.30;;;;;;4996008;28;20252;-60
2022/07/13 11:19:52;;;;;;;0.70;0.63;;;30.10;91.40;;;;;;4995946;28;20263;-60
2022/07/13 11:22:20;;;;;;;0.82;0.75;;;30.30;91.40;;;;;;4995790;28;20181;-60
2022/07/13 11:25:14;;;;;;;1.65;0.70;;;30.40;91.10;;;;;;4995722;28;20173;-59
2022/07/13 11:27:58;;;;;;;0.88;0.80;;;30.60;91.90;;;;;;4995887;28;20239;-60
2022/07/13 11:30:28;;;;;;;1.17;0.68;;;30.80;91.10;;;;;;4995620;28;20682;-60
2022/07/13 11:32:54;;;;;;;0.80;0.80;;;31.00;90.50;;;;;;4995671;28;20190;-60
2022/07/13 11:35:20;;;;;;;0.80;0.70;;;31.00;91.10;;;;;;4995437;28;20268;-57
2022/07/13 11:37:46;;;;;;;0.70;0.70;;;31.00;90.50;;;;;;4995495;28;20262;-60
2022/07/13 11:40:29;;;;;;;0.80;0.70;;;30.80;90.30;;;;;;4995249;28;20279;-60
2022/07/13 11:42:58;;;;;;;1.52;0.60;;;30.70;90.70;;;;;;4993819;28;20178;-60
2022/07/13 11:45:30;;;;;;;1.00;0.80;;;30.90;91.00;;;;;;4994766;28;20283;-60
2022/07/13 11:48:04;;;;;;;2.20;0.90;;;31.10;90.50;;;;;;4995171;28;20169;-60
2022/07/13 11:50:43;;;;;;;2.00;0.75;;;31.10;89.30;;;;;;4994147;28;20299;-60
2022/07/13 11:53:18;;;;;;;0.90;0.90;;;31.00;89.20;;;;;;4995188;28;20627;-60
2022/07/13 11:55:43;;;;;;;0.80;0.80;;;31.10;90.10;;;;;;4995169;28;20224;-60
2022/07/13 11:58:31;;;;;;;1.05;0.80;;;31.00;90.10;;;;;;4995067;28;20185;-60
2022/07/13 12:00:58;;;;;;;1.90;0.70;;;31.10;90.20;;;;;;4994878;28;20650;-59
2022/07/13 12:03:29;;;;;;;0.95;0.73;;;30.90;90.20;;;;;;4994508;28;20242;-60
2022/07/13 12:06:02;;;;;;;1.73;0.60;;;30.70;88.70;;;;;;4994763;28;20184;-60
2022/07/13 12:08:31;;;;;;;0.68;0.68;;;30.60;90.80;;;;;;4994467;28;20224;-60
2022/07/13 12:10:57;;;;;;;2.22;0.75;;;30.50;90.80;;;;;;4993398;28;20181;-59
2022/07/13 12:13:22;;;;;;;1.30;0.80;;;30.30;90.60;;;;;;4992540;28;20185;-59
2022/07/13 12:15:48;;;;;;;1.00;0.90;;;30.00;91.00;;;;;;4993391;28;20185;-59
2022/07/13 12:18:14;;;;;;;1.13;0.82;;;30.00;92.10;;;;;;4994816;28;20247;-59
2022/07/13 12:20:40;;;;;;;0.70;0.70;;;30.00;91.20;;;;;;4993524;28;20178;-60
2022/07/13 12:23:09;;;;;;;1.63;0.73;;;29.90;90.70;;;;;;4994608;28;20201;-60
2022/07/13 12:25:37;;;;;;;1.02;0.70;;;30.00;92.00;;;;;;4994739;28;20174;-60
2022/07/13 12:28:05;;;;;;;0.80;0.80;;;30.40;92.00;;;;;;4994392;28;20212;-60
2022/07/13 12:30:33;;;;;;;0.75;0.60;;;30.50;91.90;;;;;;4994501;28;20200;-59
2022/07/13 12:33:06;;;;;;;0.70;0.70;;;30.10;91.70;;;;;;4994547;28;20207;-59
2022/07/13 12:35:37;;;;;;;0.73;0.70;;;29.70;92.00;;;;;;4994510;28;20177;-60
2022/07/13 12:38:08;;;;;;;0.95;0.75;;;29.60;92.30;;;;;;4994301;28;20228;-60
2022/07/13 12:40:55;;;;;;;0.73;0.73;;;29.50;91.60;;;;;;4994459;28;20220;-60
2022/07/13 12:43:27;;;;;;;0.73;0.73;;;29.30;92.30;;;;;;4994321;28;20223;-60
2022/07/13 12:45:58;;;;;;;0.80;0.80;;;28.90;92.80;;;;;;4994475;28;20599;-60
2022/07/13 12:48:25;;;;;;;0.75;0.70;;;28.70;92.60;;;;;;4993997;28;20179;-59
2022/07/13 12:51:03;;;;;;;1.00;0.80;;;28.50;93.00;;;;;;4993076;28;20177;-60
2022/07/13 12:53:48;;;;;;;1.13;0.80;;;28.60;92.80;;;;;;4994304;28;20184;-60
2022/07/13 12:56:18;;;;;;;0.70;0.70;;;28.40;93.30;;;;;;4994136;28;20626;-59
2022/07/13 12:58:47;;;;;;;0.90;0.70;;;28.30;92.30;;;;;;4993980;28;20507;-59
2022/07/13 13:01:29;;;;;;;1.67;0.75;;;28.20;92.80;;;;;;4994157;28;20181;-59